^^
TXWeather Station Historical Data
Daily Summary for May 14, 2022 Units:  English    Metric   Both
Daily Weekly Monthly Yearly Custom
  High: Low: Average:
Temperature: 95.0 °F 72.0 °F 82.3 °F
Dew Point: 74.0 °F 67.0 °F 70.6 °F
Humidity: 88% 45% 69%
Wind Speed: 12mph 0mph 5.2mph
Wind Gust: 12mph - -
Wind- - South
Pressure: 30.0 in 29.9 in -
Precipitation: 0.000 in    
Historical Graphs
 
 
Tabular Data for May 14, 2022
Time Temperature Dew Point Pressure Wind Wind Speed Wind Gust Humidity Rainfall Rate (Hourly) solar
00:04 78.0 °F 69.0 °F 30.0 in SSE 6 mph 7 mph 74% 0.000 in 0.00 W/m2
00:09 78.0 °F 69.0 °F 30.0 in SSE 7 mph 7 mph 75% 0.000 in 0.00 W/m2
00:14 78.0 °F 69.0 °F 30.0 in SSE 9 mph 9 mph 75% 0.000 in 0.00 W/m2
00:19 78.0 °F 69.0 °F 30.0 in South 6 mph 6 mph 75% 0.000 in 0.00 W/m2
00:24 78.0 °F 69.0 °F 30.0 in South 4 mph 6 mph 75% 0.000 in 0.00 W/m2
00:29 78.0 °F 69.0 °F 30.0 in South 3 mph 3 mph 75% 0.000 in 0.00 W/m2
00:34 77.0 °F 69.0 °F 30.0 in South 6 mph 6 mph 75% 0.000 in 0.00 W/m2
00:39 77.0 °F 69.0 °F 30.0 in South 2 mph 2 mph 75% 0.000 in 0.00 W/m2
00:44 77.0 °F 69.0 °F 30.0 in South 4 mph 4 mph 75% 0.000 in 0.00 W/m2
00:49 77.0 °F 69.0 °F 30.0 in SSE 4 mph 5 mph 76% 0.000 in 0.00 W/m2
00:54 77.0 °F 69.0 °F 30.0 in SSE 2 mph 4 mph 76% 0.000 in 0.00 W/m2
00:59 77.0 °F 69.0 °F 30.0 in SSE 4 mph 4 mph 76% 0.000 in 0.00 W/m2
01:04 77.0 °F 69.0 °F 30.0 in South 6 mph 6 mph 77% 0.000 in 0.00 W/m2
01:09 77.0 °F 69.0 °F 30.0 in SSE 3 mph 4 mph 77% 0.000 in 0.00 W/m2
01:14 77.0 °F 69.0 °F 30.0 in SSE 4 mph 4 mph 78% 0.000 in 0.00 W/m2
01:19 76.0 °F 69.0 °F 30.0 in SSE 2 mph 4 mph 78% 0.000 in 0.00 W/m2
01:24 76.0 °F 69.0 °F 30.0 in SSE 5 mph 6 mph 78% 0.000 in 0.00 W/m2
01:29 76.0 °F 69.0 °F 30.0 in SSE 4 mph 6 mph 78% 0.000 in 0.00 W/m2
01:34 76.0 °F 69.0 °F 30.0 in SSW 3 mph 4 mph 78% 0.000 in 0.00 W/m2
01:39 76.0 °F 69.0 °F 30.0 in SW 3 mph 3 mph 79% 0.000 in 0.00 W/m2
01:44 76.0 °F 69.0 °F 30.0 in SSW 3 mph 4 mph 79% 0.000 in 0.00 W/m2
01:49 76.0 °F 69.0 °F 30.0 in SSW 1 mph 4 mph 79% 0.000 in 0.00 W/m2
01:54 76.0 °F 69.0 °F 30.0 in SSW 3 mph 3 mph 79% 0.000 in 0.00 W/m2
01:59 76.0 °F 69.0 °F 30.0 in SSW 3 mph 3 mph 80% 0.000 in 0.00 W/m2
02:04 76.0 °F 69.0 °F 30.0 in WSW 3 mph 4 mph 80% 0.000 in 0.00 W/m2
02:09 76.0 °F 69.0 °F 30.0 in WNW 2 mph 4 mph 80% 0.000 in 0.00 W/m2
02:14 76.0 °F 69.0 °F 30.0 in WNW 3 mph 3 mph 80% 0.000 in 0.00 W/m2
02:19 76.0 °F 69.0 °F 30.0 in WNW 2 mph 3 mph 80% 0.000 in 0.00 W/m2
02:24 76.0 °F 69.0 °F 30.0 in WNW 3 mph 3 mph 80% 0.000 in 0.00 W/m2
02:29 76.0 °F 69.0 °F 30.0 in West 3 mph 3 mph 80% 0.000 in 0.00 W/m2
02:34 76.0 °F 69.0 °F 30.0 in West 3 mph 3 mph 80% 0.000 in 0.00 W/m2
02:39 76.0 °F 69.0 °F 30.0 in West 2 mph 2 mph 80% 0.000 in 0.00 W/m2
02:44 76.0 °F 69.0 °F 30.0 in West 2 mph 2 mph 80% 0.000 in 0.00 W/m2
02:49 76.0 °F 69.0 °F 30.0 in West 2 mph 2 mph 80% 0.000 in 0.00 W/m2
02:54 76.0 °F 69.0 °F 30.0 in West 1 mph 2 mph 80% 0.000 in 0.00 W/m2
02:59 76.0 °F 69.0 °F 30.0 in Calm   1 mph 80% 0.000 in 0.00 W/m2
03:04 76.0 °F 69.0 °F 30.0 in West 1 mph 1 mph 80% 0.000 in 0.00 W/m2
03:09 75.0 °F 69.0 °F 30.0 in West 1 mph 1 mph 80% 0.000 in 0.00 W/m2
03:14 75.0 °F 68.0 °F 30.0 in West 1 mph 1 mph 80% 0.000 in 0.00 W/m2
03:19 75.0 °F 68.0 °F 30.0 in West 1 mph 1 mph 80% 0.000 in 0.00 W/m2
03:24 75.0 °F 68.0 °F 30.0 in West 1 mph 1 mph 80% 0.000 in 0.00 W/m2
03:29 75.0 °F 68.0 °F 30.0 in West 1 mph 1 mph 80% 0.000 in 0.00 W/m2
03:34 75.0 °F 68.0 °F 30.0 in West 1 mph 1 mph 80% 0.000 in 0.00 W/m2
03:39 75.0 °F 68.0 °F 30.0 in West 1 mph 1 mph 80% 0.000 in 0.00 W/m2
03:44 74.0 °F 68.0 °F 30.0 in West 2 mph 2 mph 80% 0.000 in 0.00 W/m2
03:49 74.0 °F 68.0 °F 30.0 in West 2 mph 2 mph 80% 0.000 in 0.00 W/m2
03:54 74.0 °F 68.0 °F 30.0 in WSW 2 mph 2 mph 81% 0.000 in 0.00 W/m2
03:59 74.0 °F 68.0 °F 30.0 in South 3 mph 3 mph 81% 0.000 in 0.00 W/m2
04:04 74.0 °F 68.0 °F 30.0 in South 3 mph 3 mph 81% 0.000 in 0.00 W/m2
04:09 74.0 °F 68.0 °F 30.0 in South 1 mph 1 mph 82% 0.000 in 0.00 W/m2
04:14 74.0 °F 68.0 °F 30.0 in South 2 mph 2 mph 82% 0.000 in 0.00 W/m2
04:19 74.0 °F 68.0 °F 30.0 in South 3 mph 4 mph 82% 0.000 in 0.00 W/m2
04:24 74.0 °F 68.0 °F 30.0 in South 3 mph 4 mph 82% 0.000 in 0.00 W/m2
04:29 73.0 °F 68.0 °F 30.0 in SSW 2 mph 2 mph 83% 0.000 in 0.00 W/m2
04:34 73.0 °F 68.0 °F 30.0 in SSW 2 mph 3 mph 83% 0.000 in 0.00 W/m2
04:39 73.0 °F 68.0 °F 30.0 in SSW 2 mph 2 mph 83% 0.000 in 0.00 W/m2
04:44 73.0 °F 68.0 °F 30.0 in SSW 1 mph 2 mph 83% 0.000 in 0.00 W/m2
04:49 73.0 °F 68.0 °F 30.0 in SSW 2 mph 2 mph 83% 0.000 in 0.00 W/m2
04:54 73.0 °F 68.0 °F 30.0 in SSW 2 mph 2 mph 83% 0.000 in 0.00 W/m2
04:59 73.0 °F 68.0 °F 30.0 in SSW 2 mph 2 mph 83% 0.000 in 0.00 W/m2
05:04 73.0 °F 68.0 °F 30.0 in Calm   1 mph 83% 0.000 in 0.00 W/m2
05:09 73.0 °F 68.0 °F 30.0 in SSW 1 mph 2 mph 83% 0.000 in 0.00 W/m2
05:14 73.0 °F 68.0 °F 29.9 in SSW 1 mph 1 mph 84% 0.000 in 0.00 W/m2
05:19 73.0 °F 68.0 °F 29.9 in South 2 mph 2 mph 84% 0.000 in 0.00 W/m2
05:24 73.0 °F 68.0 °F 29.9 in South 2 mph 2 mph 84% 0.000 in 0.00 W/m2
05:29 73.0 °F 68.0 °F 29.9 in South 1 mph 2 mph 84% 0.000 in 0.00 W/m2
05:34 73.0 °F 68.0 °F 29.9 in South 1 mph 1 mph 84% 0.000 in 0.00 W/m2
05:39 72.0 °F 67.0 °F 29.9 in South 2 mph 2 mph 84% 0.000 in 0.00 W/m2
05:44 72.0 °F 67.0 °F 29.9 in South 2 mph 2 mph 84% 0.000 in 0.00 W/m2
05:49 72.0 °F 67.0 °F 29.9 in South 2 mph 2 mph 84% 0.000 in 0.00 W/m2
05:54 72.0 °F 67.0 °F 29.9 in South 3 mph 3 mph 84% 0.000 in 0.00 W/m2
05:59 72.0 °F 67.0 °F 29.9 in South 3 mph 3 mph 84% 0.000 in 0.00 W/m2
06:04 72.0 °F 68.0 °F 29.9 in South 1 mph 2 mph 85% 0.000 in 0.00 W/m2
06:09 72.0 °F 67.0 °F 29.9 in South 3 mph 3 mph 85% 0.000 in 0.00 W/m2
06:14 72.0 °F 67.0 °F 29.9 in South 6 mph 6 mph 85% 0.000 in 0.00 W/m2
06:19 72.0 °F 67.0 °F 29.9 in SSE 2 mph 6 mph 85% 0.000 in 0.00 W/m2
06:24 72.0 °F 68.0 °F 29.9 in South 4 mph 4 mph 86% 0.000 in 0.00 W/m2
06:29 72.0 °F 68.0 °F 29.9 in SSE 4 mph 4 mph 86% 0.000 in 0.00 W/m2
06:34 72.0 °F 68.0 °F 29.9 in South 4 mph 5 mph 86% 0.000 in 0.00 W/m2
06:39 72.0 °F 68.0 °F 29.9 in South 3 mph 4 mph 86% 0.000 in 7.00 W/m2
06:44 72.0 °F 68.0 °F 29.9 in SSE 5 mph 5 mph 86% 0.000 in 11.00 W/m2
06:49 72.0 °F 68.0 °F 29.9 in SSW 2 mph 4 mph 86% 0.000 in 16.00 W/m2
06:54 72.0 °F 68.0 °F 29.9 in SW 2 mph 2 mph 86% 0.000 in 21.00 W/m2
06:59 72.0 °F 68.0 °F 29.9 in SW 2 mph 2 mph 87% 0.000 in 25.00 W/m2
07:04 72.0 °F 68.0 °F 30.0 in SW 2 mph 2 mph 87% 0.000 in 26.00 W/m2
07:09 72.0 °F 68.0 °F 30.0 in SSW 1 mph 2 mph 87% 0.000 in 26.00 W/m2
07:14 72.0 °F 68.0 °F 30.0 in SSW 1 mph 2 mph 87% 0.000 in 28.00 W/m2
07:19 72.0 °F 68.0 °F 30.0 in SSW 1 mph 1 mph 87% 0.000 in 28.00 W/m2
07:24 72.0 °F 68.0 °F 30.0 in SSW 1 mph 1 mph 87% 0.000 in 30.00 W/m2
07:29 72.0 °F 68.0 °F 30.0 in SSW 3 mph 3 mph 87% 0.000 in 32.00 W/m2
07:34 73.0 °F 68.0 °F 30.0 in SSW 1 mph 1 mph 87% 0.000 in 39.00 W/m2
07:39 73.0 °F 69.0 °F 30.0 in SSW 1 mph 2 mph 87% 0.000 in 42.00 W/m2
07:44 73.0 °F 69.0 °F 30.0 in SSW 1 mph 1 mph 88% 0.000 in 49.00 W/m2
07:49 73.0 °F 69.0 °F 30.0 in SSW 2 mph 2 mph 88% 0.000 in 58.00 W/m2
07:54 73.0 °F 69.0 °F 30.0 in SSW 2 mph 3 mph 88% 0.000 in 69.00 W/m2
07:59 73.0 °F 69.0 °F 30.0 in SSW 2 mph 2 mph 88% 0.000 in 70.00 W/m2
08:04 73.0 °F 69.0 °F 30.0 in WSW 2 mph 2 mph 88% 0.000 in 69.00 W/m2
08:09 74.0 °F 70.0 °F 30.0 in NNW 2 mph 3 mph 88% 0.000 in 67.00 W/m2
08:14 74.0 °F 70.0 °F 30.0 in NNW 2 mph 2 mph 88% 0.000 in 70.00 W/m2
08:19 74.0 °F 70.0 °F 30.0 in NNW 1 mph 1 mph 88% 0.000 in 83.00 W/m2
08:24 74.0 °F 70.0 °F 30.0 in ESE 2 mph 2 mph 88% 0.000 in 90.00 W/m2
08:29 74.0 °F 70.0 °F 30.0 in SE 3 mph 3 mph 88% 0.000 in 88.00 W/m2
08:34 74.0 °F 70.0 °F 30.0 in SE 3 mph 3 mph 88% 0.000 in 83.00 W/m2
08:39 74.0 °F 70.0 °F 30.0 in SE 2 mph 3 mph 88% 0.000 in 79.00 W/m2
08:44 75.0 °F 70.0 °F 30.0 in SE 2 mph 2 mph 87% 0.000 in 100.00 W/m2
08:49 75.0 °F 70.0 °F 30.0 in SE 2 mph 2 mph 87% 0.000 in 118.00 W/m2
08:54 75.0 °F 71.0 °F 30.0 in SE 4 mph 4 mph 87% 0.000 in 183.00 W/m2
08:59 75.0 °F 71.0 °F 30.0 in SE 3 mph 4 mph 87% 0.000 in 355.00 W/m2
09:04 75.0 °F 71.0 °F 30.0 in SSE 2 mph 4 mph 87% 0.000 in 376.00 W/m2
09:09 76.0 °F 72.0 °F 30.0 in SSE 5 mph 5 mph 87% 0.000 in 371.00 W/m2
09:14 76.0 °F 72.0 °F 30.0 in SSE 6 mph 6 mph 87% 0.000 in 406.00 W/m2
09:19 77.0 °F 72.0 °F 30.0 in South 8 mph 8 mph 86% 0.000 in 462.00 W/m2
09:24 77.0 °F 72.0 °F 30.0 in South 6 mph 6 mph 86% 0.000 in 468.00 W/m2
09:29 78.0 °F 73.0 °F 30.0 in South 6 mph 6 mph 85% 0.000 in 492.00 W/m2
09:34 78.0 °F 73.0 °F 30.0 in South 6 mph 8 mph 83% 0.000 in 492.00 W/m2
09:39 79.0 °F 72.0 °F 30.0 in South 7 mph 7 mph 81% 0.000 in 522.00 W/m2
09:44 80.0 °F 72.0 °F 30.0 in SW 7 mph 7 mph 79% 0.000 in 552.00 W/m2
09:49 80.0 °F 72.0 °F 30.0 in SSW 7 mph 9 mph 77% 0.000 in 515.00 W/m2
09:54 81.0 °F 71.0 °F 30.0 in South 7 mph 7 mph 74% 0.000 in 520.00 W/m2
09:59 81.0 °F 71.0 °F 30.0 in SSE 7 mph 9 mph 73% 0.000 in 577.00 W/m2
10:04 82.0 °F 71.0 °F 30.0 in SSE 11 mph 11 mph 72% 0.000 in 577.00 W/m2
10:09 82.0 °F 72.0 °F 30.0 in SSW 12 mph 12 mph 71% 0.000 in 642.00 W/m2
10:14 83.0 °F 71.0 °F 30.0 in SSW 9 mph 9 mph 69% 0.000 in 603.00 W/m2
10:19 83.0 °F 71.0 °F 30.0 in South 12 mph 12 mph 68% 0.000 in 744.00 W/m2
10:24 83.0 °F 71.0 °F 30.0 in SSW 8 mph 12 mph 67% 0.000 in 775.00 W/m2
10:29 83.0 °F 71.0 °F 30.0 in South 5 mph 10 mph 67% 0.000 in 737.00 W/m2
10:34 84.0 °F 72.0 °F 30.0 in SW 12 mph 12 mph 67% 0.000 in 826.00 W/m2
10:39 84.0 °F 72.0 °F 30.0 in SSW 5 mph 12 mph 67% 0.000 in 918.00 W/m2
10:44 84.0 °F 72.0 °F 30.0 in South 7 mph 7 mph 66% 0.000 in 918.00 W/m2
10:49 85.0 °F 72.0 °F 30.0 in South 5 mph 7 mph 66% 0.000 in 394.00 W/m2
10:54 85.0 °F 71.0 °F 30.0 in South 6 mph 6 mph 64% 0.000 in 329.00 W/m2
10:59 85.0 °F 71.0 °F 30.0 in SSW 5 mph 7 mph 64% 0.000 in 432.00 W/m2
11:04 85.0 °F 71.0 °F 30.0 in South 6 mph 8 mph 64% 0.000 in 309.00 W/m2
11:09 85.0 °F 71.0 °F 30.0 in SW 5 mph 8 mph 63% 0.000 in 309.00 W/m2
11:14 85.0 °F 71.0 °F 30.0 in SSW 4 mph 4 mph 64% 0.000 in 589.00 W/m2
11:19 85.0 °F 71.0 °F 30.0 in SSW 6 mph 7 mph 64% 0.000 in 589.00 W/m2
11:24 85.0 °F 71.0 °F 30.0 in SSE 7 mph 7 mph 62% 0.000 in 443.00 W/m2
11:29 86.0 °F 72.0 °F 30.0 in South 7 mph 7 mph 64% 0.000 in 833.00 W/m2
11:34 86.0 °F 72.0 °F 30.0 in South 6 mph 6 mph 64% 0.000 in 833.00 W/m2
11:39 86.0 °F 72.0 °F 30.0 in SW 8 mph 8 mph 62% 0.000 in 833.00 W/m2
11:44 86.0 °F 71.0 °F 30.0 in South 3 mph 8 mph 61% 0.000 in 292.00 W/m2
11:49 86.0 °F 71.0 °F 30.0 in SSE 5 mph 5 mph 61% 0.000 in 1102.00 W/m2
11:54 87.0 °F 72.0 °F 30.0 in SSW 4 mph 5 mph 62% 0.000 in 1111.00 W/m2
11:59 87.0 °F 72.0 °F 30.0 in SSW 3 mph 4 mph 62% 0.000 in 425.00 W/m2
12:04 87.0 °F 72.0 °F 30.0 in South 7 mph 7 mph 61% 0.000 in 436.00 W/m2
12:09 87.0 °F 73.0 °F 30.0 in SE 7 mph 7 mph 62% 0.000 in 1123.00 W/m2
12:14 88.0 °F 72.0 °F 30.0 in South 5 mph 7 mph 60% 0.000 in 1123.00 W/m2
12:19 88.0 °F 72.0 °F 30.0 in SSW 5 mph 7 mph 59% 0.000 in 334.00 W/m2
12:24 88.0 °F 71.0 °F 30.0 in South 5 mph 5 mph 58% 0.000 in 408.00 W/m2
12:29 88.0 °F 72.0 °F 30.0 in SSE 5 mph 5 mph 59% 0.000 in 1097.00 W/m2
12:34 88.0 °F 72.0 °F 30.0 in SSE 6 mph 7 mph 59% 0.000 in 1086.00 W/m2
12:39 89.0 °F 73.0 °F 30.0 in South 3 mph 4 mph 59% 0.000 in 1086.00 W/m2
12:44 89.0 °F 73.0 °F 30.0 in SE 4 mph 4 mph 58% 0.000 in 1069.00 W/m2
12:49 90.0 °F 72.0 °F 30.0 in SSE 11 mph 11 mph 56% 0.000 in 1150.00 W/m2
12:54 90.0 °F 72.0 °F 30.0 in SE 9 mph 9 mph 56% 0.000 in 1141.00 W/m2
12:59 90.0 °F 73.0 °F 30.0 in South 6 mph 7 mph 57% 0.000 in 357.00 W/m2
13:04 90.0 °F 73.0 °F 30.0 in South 5 mph 5 mph 57% 0.000 in 357.00 W/m2
13:09 90.0 °F 73.0 °F 30.0 in SSE 5 mph 5 mph 58% 0.000 in 1107.00 W/m2
13:14 90.0 °F 74.0 °F 30.0 in SSE 7 mph 7 mph 59% 0.000 in 1104.00 W/m2
13:19 90.0 °F 73.0 °F 30.0 in SE 8 mph 9 mph 57% 0.000 in 1081.00 W/m2
13:24 90.0 °F 73.0 °F 30.0 in SSE 8 mph 9 mph 57% 0.000 in 1065.00 W/m2
13:29 91.0 °F 74.0 °F 30.0 in SSW 4 mph 6 mph 58% 0.000 in 1076.00 W/m2
13:34 91.0 °F 74.0 °F 30.0 in SSE 5 mph 5 mph 57% 0.000 in 1046.00 W/m2
13:39 91.0 °F 73.0 °F 30.0 in SSE 5 mph 7 mph 56% 0.000 in 439.00 W/m2
13:44 91.0 °F 73.0 °F 30.0 in South 7 mph 7 mph 57% 0.000 in 1102.00 W/m2
13:49 91.0 °F 73.0 °F 30.0 in SSE 5 mph 7 mph 55% 0.000 in 374.00 W/m2
13:54 91.0 °F 73.0 °F 30.0 in SSE 10 mph 10 mph 55% 0.000 in 1125.00 W/m2
13:59 91.0 °F 73.0 °F 30.0 in SSE 6 mph 10 mph 56% 0.000 in 1111.00 W/m2
14:04 91.0 °F 73.0 °F 30.0 in SSE 7 mph 8 mph 56% 0.000 in 1097.00 W/m2
14:09 91.0 °F 73.0 °F 30.0 in SSE 5 mph 8 mph 56% 0.000 in 1071.00 W/m2
14:14 91.0 °F 73.0 °F 30.0 in South 5 mph 6 mph 55% 0.000 in 1018.00 W/m2
14:19 91.0 °F 73.0 °F 30.0 in WSW 5 mph 5 mph 55% 0.000 in 1100.00 W/m2
14:24 91.0 °F 74.0 °F 30.0 in SSE 6 mph 6 mph 57% 0.000 in 1014.00 W/m2
14:29 92.0 °F 74.0 °F 30.0 in SSE 7 mph 7 mph 56% 0.000 in 1053.00 W/m2
14:34 92.0 °F 74.0 °F 30.0 in SE 7 mph 8 mph 56% 0.000 in 1069.00 W/m2
14:39 93.0 °F 74.0 °F 30.0 in SE 9 mph 10 mph 55% 0.000 in 1065.00 W/m2
14:44 93.0 °F 74.0 °F 30.0 in SE 5 mph 7 mph 55% 0.000 in 981.00 W/m2
14:49 93.0 °F 72.0 °F 30.0 in SE 8 mph 8 mph 52% 0.000 in 262.00 W/m2
14:54 92.0 °F 73.0 °F 30.0 in SSE 8 mph 8 mph 54% 0.000 in 1007.00 W/m2
14:59 93.0 °F 74.0 °F 30.0 in South 5 mph 6 mph 54% 0.000 in 1004.00 W/m2
15:04 93.0 °F 73.0 °F 30.0 in SSE 7 mph 8 mph 54% 0.000 in 958.00 W/m2
15:09 93.0 °F 73.0 °F 30.0 in SSE 5 mph 8 mph 53% 0.000 in 962.00 W/m2
15:14 93.0 °F 73.0 °F 30.0 in SE 7 mph 10 mph 53% 0.000 in 963.00 W/m2
15:19 93.0 °F 71.0 °F 30.0 in SE 8 mph 10 mph 50% 0.000 in 926.00 W/m2
15:24 93.0 °F 72.0 °F 30.0 in SE 6 mph 6 mph 51% 0.000 in 925.00 W/m2
15:29 93.0 °F 71.0 °F 30.0 in East 6 mph 6 mph 50% 0.000 in 886.00 W/m2
15:34 93.0 °F 72.0 °F 30.0 in SSW 7 mph 7 mph 51% 0.000 in 858.00 W/m2
15:39 93.0 °F 72.0 °F 30.0 in SE 7 mph 8 mph 51% 0.000 in 854.00 W/m2
15:44 93.0 °F 72.0 °F 30.0 in ESE 6 mph 7 mph 50% 0.000 in 812.00 W/m2
15:49 94.0 °F 72.0 °F 30.0 in SSE 11 mph 11 mph 50% 0.000 in 821.00 W/m2
15:54 94.0 °F 72.0 °F 30.0 in SSE 9 mph 11 mph 49% 0.000 in 817.00 W/m2
15:59 94.0 °F 72.0 °F 30.0 in SE 6 mph 7 mph 49% 0.000 in 809.00 W/m2
16:04 94.0 °F 71.0 °F 30.0 in ESE 5 mph 7 mph 48% 0.000 in 775.00 W/m2
16:09 94.0 °F 71.0 °F 30.0 in SE 8 mph 8 mph 48% 0.000 in 737.00 W/m2
16:14 94.0 °F 71.0 °F 30.0 in SE 6 mph 8 mph 47% 0.000 in 735.00 W/m2
16:19 95.0 °F 72.0 °F 30.0 in SSE 7 mph 12 mph 48% 0.000 in 714.00 W/m2
16:24 95.0 °F 71.0 °F 30.0 in SE 8 mph 12 mph 46% 0.000 in 694.00 W/m2
16:27 95.0 °F 71.0 °F 30.0 in SE 7 mph 8 mph 46% 0.000 in 684.00 W/m2
16:34 94.0 °F 70.0 °F 30.0 in ESE 4 mph 6 mph 45% 0.000 in 144.00 W/m2
16:39 94.0 °F 69.0 °F 30.0 in ESE 7 mph 7 mph 45% 0.000 in 496.00 W/m2
16:44 94.0 °F 69.0 °F 30.0 in SE 7 mph 7 mph 46% 0.000 in 162.00 W/m2
16:49 93.0 °F 70.0 °F 30.0 in SE 4 mph 4 mph 48% 0.000 in 640.00 W/m2
16:54 93.0 °F 70.0 °F 30.0 in ESE 6 mph 9 mph 48% 0.000 in 636.00 W/m2
16:59 93.0 °F 69.0 °F 30.0 in SE 9 mph 11 mph 46% 0.000 in 626.00 W/m2
17:04 93.0 °F 69.0 °F 30.0 in SE 5 mph 7 mph 46% 0.000 in 603.00 W/m2
17:09 94.0 °F 69.0 °F 29.9 in SE 8 mph 10 mph 46% 0.000 in 598.00 W/m2
17:14 94.0 °F 70.0 °F 29.9 in SE 7 mph 10 mph 46% 0.000 in 584.00 W/m2
17:19 94.0 °F 70.0 °F 29.9 in SSE 7 mph 9 mph 46% 0.000 in 545.00 W/m2
17:24 94.0 °F 70.0 °F 29.9 in SSE 8 mph 9 mph 45% 0.000 in 531.00 W/m2
17:29 94.0 °F 70.0 °F 29.9 in SSE 5 mph 6 mph 45% 0.000 in 515.00 W/m2
17:34 94.0 °F 70.0 °F 29.9 in SSE 10 mph 10 mph 45% 0.000 in 471.00 W/m2
17:39 94.0 °F 70.0 °F 29.9 in SSE 4 mph 7 mph 45% 0.000 in 445.00 W/m2
17:44 94.0 °F 73.0 °F 29.9 in SE 9 mph 9 mph 50% 0.000 in 429.00 W/m2
17:49 94.0 °F 74.0 °F 29.9 in ESE 11 mph 11 mph 52% 0.000 in 408.00 W/m2
17:54 94.0 °F 74.0 °F 29.9 in East 6 mph 8 mph 52% 0.000 in 387.00 W/m2
17:59 94.0 °F 74.0 °F 29.9 in SE 4 mph 4 mph 52% 0.000 in 362.00 W/m2
18:04 94.0 °F 73.0 °F 29.9 in SE 8 mph 8 mph 52% 0.000 in 348.00 W/m2
18:09 94.0 °F 73.0 °F 29.9 in ESE 9 mph 9 mph 52% 0.000 in 348.00 W/m2
18:14 94.0 °F 74.0 °F 29.9 in ESE 10 mph 12 mph 53% 0.000 in 336.00 W/m2
18:19 94.0 °F 74.0 °F 29.9 in ESE 8 mph 12 mph 53% 0.000 in 302.00 W/m2
18:24 93.0 °F 74.0 °F 29.9 in SE 9 mph 9 mph 54% 0.000 in 267.00 W/m2
18:29 93.0 °F 74.0 °F 29.9 in ESE 8 mph 8 mph 55% 0.000 in 258.00 W/m2
18:34 93.0 °F 74.0 °F 29.9 in SE 8 mph 8 mph 56% 0.000 in 236.00 W/m2
18:39 92.0 °F 74.0 °F 29.9 in SE 6 mph 7 mph 56% 0.000 in 220.00 W/m2
18:44 92.0 °F 74.0 °F 29.9 in SE 8 mph 9 mph 56% 0.000 in 207.00 W/m2
18:49 92.0 °F 74.0 °F 29.9 in East 6 mph 9 mph 56% 0.000 in 190.00 W/m2
18:54 91.0 °F 74.0 °F 29.9 in East 8 mph 8 mph 57% 0.000 in 174.00 W/m2
18:59 91.0 °F 74.0 °F 29.9 in SE 8 mph 8 mph 57% 0.000 in 156.00 W/m2
19:04 91.0 °F 73.0 °F 29.9 in SE 9 mph 9 mph 56% 0.000 in 139.00 W/m2
19:09 90.0 °F 73.0 °F 29.9 in SE 7 mph 7 mph 56% 0.000 in 65.00 W/m2
19:14 90.0 °F 73.0 °F 29.9 in SE 6 mph 7 mph 57% 0.000 in 51.00 W/m2
19:19 90.0 °F 73.0 °F 29.9 in SE 7 mph 9 mph 57% 0.000 in 51.00 W/m2
19:24 89.0 °F 72.0 °F 29.9 in SSE 7 mph 10 mph 58% 0.000 in 46.00 W/m2
19:29 89.0 °F 73.0 °F 29.9 in SSE 8 mph 10 mph 59% 0.000 in 46.00 W/m2
19:34 88.0 °F 73.0 °F 29.9 in SSE 9 mph 9 mph 60% 0.000 in 32.00 W/m2
19:39 88.0 °F 73.0 °F 29.9 in SSE 6 mph 7 mph 61% 0.000 in 25.00 W/m2
19:44 88.0 °F 73.0 °F 29.9 in SSE 9 mph 9 mph 62% 0.000 in 23.00 W/m2
19:49 87.0 °F 73.0 °F 29.9 in South 9 mph 9 mph 62% 0.000 in 21.00 W/m2
19:54 87.0 °F 73.0 °F 29.9 in SSE 9 mph 9 mph 63% 0.000 in 16.00 W/m2
19:59 87.0 °F 73.0 °F 29.9 in SSE 11 mph 11 mph 64% 0.000 in 7.00 W/m2
20:04 86.0 °F 73.0 °F 29.9 in SSE 8 mph 9 mph 64% 0.000 in 0.00 W/m2
20:09 86.0 °F 73.0 °F 29.9 in SSE 7 mph 9 mph 65% 0.000 in 0.00 W/m2
20:14 86.0 °F 72.0 °F 29.9 in SSE 5 mph 9 mph 65% 0.000 in 0.00 W/m2
20:19 85.0 °F 73.0 °F 30.0 in SSE 10 mph 11 mph 66% 0.000 in 0.00 W/m2
20:24 85.0 °F 72.0 °F 30.0 in SSE 9 mph 11 mph 66% 0.000 in 0.00 W/m2
20:29 85.0 °F 72.0 °F 30.0 in SSE 10 mph 12 mph 66% 0.000 in 0.00 W/m2
20:34 84.0 °F 72.0 °F 30.0 in SSE 8 mph 9 mph 67% 0.000 in 0.00 W/m2
20:39 84.0 °F 72.0 °F 30.0 in SSE 11 mph 11 mph 67% 0.000 in 0.00 W/m2
20:44 84.0 °F 72.0 °F 30.0 in SSE 6 mph 8 mph 67% 0.000 in 0.00 W/m2
20:49 84.0 °F 72.0 °F 30.0 in SSE 6 mph 6 mph 68% 0.000 in 0.00 W/m2
20:54 84.0 °F 72.0 °F 30.0 in SSE 7 mph 8 mph 68% 0.000 in 0.00 W/m2
20:59 83.0 °F 72.0 °F 30.0 in SSE 7 mph 7 mph 68% 0.000 in 0.00 W/m2
21:04 83.0 °F 71.0 °F 30.0 in SSE 6 mph 8 mph 68% 0.000 in 0.00 W/m2
21:09 83.0 °F 72.0 °F 30.0 in SSE 7 mph 7 mph 69% 0.000 in 0.00 W/m2
21:14 83.0 °F 72.0 °F 30.0 in SSE 10 mph 10 mph 69% 0.000 in 0.00 W/m2
21:19 82.0 °F 71.0 °F 30.0 in SSE 7 mph 11 mph 69% 0.000 in 0.00 W/m2
21:24 82.0 °F 71.0 °F 30.0 in SSE 8 mph 11 mph 69% 0.000 in 0.00 W/m2
21:29 82.0 °F 71.0 °F 30.0 in South 9 mph 9 mph 69% 0.000 in 0.00 W/m2
21:34 82.0 °F 71.0 °F 30.0 in SSE 8 mph 8 mph 70% 0.000 in 0.00 W/m2
21:39 82.0 °F 71.0 °F 30.0 in SSE 9 mph 9 mph 70% 0.000 in 0.00 W/m2
21:44 82.0 °F 71.0 °F 30.0 in South 6 mph 8 mph 70% 0.000 in 0.00 W/m2
21:49 82.0 °F 71.0 °F 30.0 in SSE 8 mph 9 mph 70% 0.000 in 0.00 W/m2
21:54 81.0 °F 71.0 °F 30.0 in SSE 6 mph 8 mph 70% 0.000 in 0.00 W/m2
21:59 81.0 °F 70.0 °F 30.0 in South 11 mph 11 mph 70% 0.000 in 0.00 W/m2
22:04 81.0 °F 70.0 °F 30.0 in SSE 8 mph 11 mph 70% 0.000 in 0.00 W/m2
22:09 81.0 °F 71.0 °F 30.0 in SSE 7 mph 8 mph 71% 0.000 in 0.00 W/m2
22:14 81.0 °F 71.0 °F 30.0 in SSE 8 mph 12 mph 71% 0.000 in 0.00 W/m2
22:19 81.0 °F 70.0 °F 30.0 in SSE 7 mph 12 mph 71% 0.000 in 0.00 W/m2
22:24 80.0 °F 70.0 °F 30.0 in SSE 6 mph 7 mph 71% 0.000 in 0.00 W/m2
22:29 80.0 °F 70.0 °F 30.0 in South 6 mph 7 mph 71% 0.000 in 0.00 W/m2
22:34 80.0 °F 70.0 °F 30.0 in SSE 10 mph 10 mph 71% 0.000 in 0.00 W/m2
22:39 80.0 °F 70.0 °F 30.0 in South 5 mph 10 mph 71% 0.000 in 0.00 W/m2
22:44 80.0 °F 70.0 °F 30.0 in SSE 7 mph 7 mph 71% 0.000 in 0.00 W/m2
22:49 80.0 °F 70.0 °F 30.0 in SSE 5 mph 7 mph 72% 0.000 in 0.00 W/m2
22:54 80.0 °F 69.0 °F 30.0 in SSE 7 mph 7 mph 72% 0.000 in 0.00 W/m2
22:59 79.0 °F 69.0 °F 30.0 in SSE 8 mph 8 mph 72% 0.000 in 0.00 W/m2
23:04 79.0 °F 69.0 °F 30.0 in SSE 5 mph 7 mph 72% 0.000 in 0.00 W/m2
23:09 79.0 °F 69.0 °F 30.0 in SSE 6 mph 6 mph 72% 0.000 in 0.00 W/m2
23:14 79.0 °F 69.0 °F 30.0 in SSE 4 mph 6 mph 72% 0.000 in 0.00 W/m2
23:19 79.0 °F 69.0 °F 30.0 in South 5 mph 6 mph 72% 0.000 in 0.00 W/m2
23:24 79.0 °F 69.0 °F 30.0 in SSE 6 mph 6 mph 73% 0.000 in 0.00 W/m2
23:29 79.0 °F 69.0 °F 30.0 in South 5 mph 5 mph 73% 0.000 in 0.00 W/m2
23:34 78.0 °F 69.0 °F 30.0 in South 6 mph 6 mph 73% 0.000 in 0.00 W/m2
23:39 78.0 °F 69.0 °F 30.0 in South 5 mph 6 mph 74% 0.000 in 0.00 W/m2
23:44 78.0 °F 69.0 °F 30.0 in SSE 4 mph 5 mph 74% 0.000 in 0.00 W/m2
23:49 78.0 °F 69.0 °F 30.0 in SSE 4 mph 6 mph 74% 0.000 in 0.00 W/m2
23:54 78.0 °F 69.0 °F 30.0 in South 6 mph 7 mph 75% 0.000 in 0.00 W/m2
23:59 78.0 °F 69.0 °F 30.0 in South 4 mph 7 mph 75% 0.000 in 0.00 W/m2
Villages of Bridgestone, Spring, TX USA
Compliments of Weather Underground - 4 mb